Time;durP1;ratioP1;P1;durP2;ratioP2;P2;SDS_P1;SDS_P2;PMS_P1;PMS_P2;Temp;Humidity;BMP_temperature;BMP_pressure;BME280_temperature;BME280_humidity;BME280_pressure;Samples;Min_cycle;Max_cycle;Signal;HPM_P1;HPM_P2
2023/08/12 00:02:43;;;;;;;9.73;4.07;;;;;;;19.72;91.11;101072.41;6101550;28;20021;-66
2023/08/12 00:05:39;;;;;;;10.50;4.13;;;;;;;19.63;91.11;101076.28;6101253;28;20025;-66
2023/08/12 00:08:35;;;;;;;13.55;3.58;;;;;;;19.62;91.32;101082.69;6101368;28;20037;-66
2023/08/12 00:11:30;;;;;;;10.33;3.63;;;;;;;19.65;91.03;101082.28;6101683;28;20127;-66
2023/08/12 00:14:25;;;;;;;10.87;3.90;;;;;;;19.46;91.82;101066.81;6100163;28;20036;-66
2023/08/12 00:17:21;;;;;;;10.73;3.77;;;;;;;19.46;91.66;101069.50;6102097;28;20267;-66
2023/08/12 00:20:16;;;;;;;9.40;4.13;;;;;;;19.40;92.08;101070.31;6101075;28;20021;-66
2023/08/12 00:23:11;;;;;;;10.55;3.90;;;;;;;19.35;92.38;101070.03;6100937;28;20280;-66
2023/08/12 00:26:08;;;;;;;9.50;4.03;;;;;;;19.35;92.34;101064.66;6100966;28;20025;-66
2023/08/12 00:29:03;;;;;;;12.68;3.88;;;;;;;19.38;92.77;101064.28;6102329;28;20147;-66
2023/08/12 00:31:58;;;;;;;13.70;4.10;;;;;;;19.36;92.63;101071.69;6100859;28;20025;-66
2023/08/12 00:34:53;;;;;;;9.20;3.80;;;;;;;19.40;93.42;101067.63;6100340;28;20266;-66
2023/08/12 00:37:49;;;;;;;11.60;3.93;;;;;;;19.67;91.57;101074.88;6100898;28;20056;-66
2023/08/12 00:40:44;;;;;;;11.63;4.00;;;;;;;19.70;91.69;101052.94;6101128;28;20024;-66
2023/08/12 00:43:39;;;;;;;10.93;4.27;;;;;;;19.62;91.59;101057.66;6100309;28;20028;-66
2023/08/12 00:46:35;;;;;;;8.27;3.37;;;;;;;19.47;91.91;101046.97;6101312;28;20033;-66
2023/08/12 00:49:31;;;;;;;10.48;3.40;;;;;;;19.50;91.73;101058.19;6099369;28;20359;-66
2023/08/12 00:52:27;;;;;;;11.80;3.40;;;;;;;19.58;91.32;101066.09;6100239;28;20031;-66
2023/08/12 00:55:22;;;;;;;7.97;3.15;;;;;;;19.51;91.63;101048.25;6097758;28;20033;-66
2023/08/12 00:58:17;;;;;;;5.53;3.60;;;;;;;19.74;90.41;101051.50;6100285;28;20063;-66
2023/08/12 01:01:13;;;;;;;8.23;3.27;;;;;;;19.76;91.63;101044.06;6106381;28;20054;-66
2023/08/12 01:04:08;;;;;;;9.32;3.10;;;;;;;19.81;91.85;101035.41;6104183;28;20020;-66
2023/08/12 01:07:04;;;;;;;10.57;3.10;;;;;;;19.90;90.87;101053.88;6099837;28;20468;-66
2023/08/12 01:09:59;;;;;;;8.70;3.30;;;;;;;20.04;89.99;101055.63;6099962;28;20024;-66
2023/08/12 01:13:26;;;;;;;14.00;3.30;;;;;;;19.93;90.13;101048.09;6100253;28;20035;-66
2023/08/12 01:16:22;;;;;;;9.60;3.25;;;;;;;19.73;89.75;101028.31;6090968;28;20276;-66
2023/08/12 01:19:34;;;;;;;9.85;3.40;;;;;;;19.64;90.42;101029.50;6127041;28;20025;-66
2023/08/12 01:22:32;;;;;;;11.52;4.15;;;;;;;19.49;91.54;101028.78;6100127;28;20040;-65
2023/08/12 01:25:27;;;;;;;15.18;4.10;;;;;;;19.38;91.70;101010.47;6097785;28;20028;-65
2023/08/12 01:28:22;;;;;;;8.73;3.30;;;;;;;19.26;92.83;101022.78;6099887;28;20036;-65
2023/08/12 01:31:28;;;;;;;11.30;3.67;;;;;;;19.27;92.96;101019.06;6099521;28;20777;-65
2023/08/12 01:34:43;;;;;;;9.75;3.40;;;;;;;19.29;93.61;101023.22;6098589;28;20029;-66
2023/08/12 01:37:39;;;;;;;8.02;3.67;;;;;;;19.28;93.54;101026.09;6099585;28;20115;-66
2023/08/12 01:40:35;;;;;;;8.82;3.72;;;;;;;19.13;93.75;101012.75;6097868;28;20021;-66
2023/08/12 01:43:30;;;;;;;10.18;3.47;;;;;;;19.10;94.14;101004.25;6097464;28;20029;-66
2023/08/12 01:46:27;;;;;;;8.30;3.25;;;;;;;19.14;94.43;101006.34;6099042;28;20477;-66
2023/08/12 01:49:24;;;;;;;8.57;3.42;;;;;;;19.06;94.53;101008.34;6099221;28;20622;-66
2023/08/12 01:52:19;;;;;;;8.63;3.60;;;;;;;19.06;95.21;101011.03;6098998;28;20490;-66
2023/08/12 01:55:14;;;;;;;8.60;3.23;;;;;;;18.97;95.91;101003.09;6099171;28;20027;-66
2023/08/12 01:58:10;;;;;;;11.85;3.78;;;;;;;19.00;96.04;101005.41;6096134;28;20025;-66
2023/08/12 02:01:05;;;;;;;7.30;2.65;;;;;;;19.02;96.14;100997.97;6098528;28;20025;-66
2023/08/12 02:04:00;;;;;;;8.33;3.77;;;;;;;19.09;96.25;101005.25;6098414;28;20134;-65
2023/08/12 02:06:56;;;;;;;12.53;3.30;;;;;;;19.05;96.15;100994.09;6109619;28;20533;-65
2023/08/12 02:09:51;;;;;;;8.75;3.50;;;;;;;18.98;96.45;100988.63;6098567;28;20665;-65
2023/08/12 02:12:47;;;;;;;9.73;3.73;;;;;;;18.94;96.90;100987.34;6098686;28;20079;-65
2023/08/12 02:15:43;;;;;;;8.73;3.43;;;;;;;19.00;97.21;100997.31;6097744;28;20021;-65
2023/08/12 02:18:38;;;;;;;9.98;3.40;;;;;;;18.90;97.50;100979.88;6098395;28;20267;-65
2023/08/12 02:21:34;;;;;;;9.00;3.67;;;;;;;18.83;97.67;100974.44;6099520;28;20024;-65
2023/08/12 02:24:29;;;;;;;6.40;3.37;;;;;;;18.86;97.63;100967.88;6097602;28;20274;-65
2023/08/12 02:27:24;;;;;;;8.17;3.17;;;;;;;18.83;97.88;100969.06;6098137;28;20056;-66
2023/08/12 02:30:20;;;;;;;10.63;3.67;;;;;;;18.95;97.92;100980.13;6097931;28;20346;-65
2023/08/12 02:33:15;;;;;;;9.33;3.53;;;;;;;18.93;97.70;100968.75;6097898;28;20036;-66
2023/08/12 02:36:10;;;;;;;6.83;3.73;;;;;;;18.90;97.74;100964.59;6097883;28;20019;-65
2023/08/12 02:39:05;;;;;;;9.97;3.67;;;;;;;18.91;97.84;100971.63;6098847;28;20036;-65
2023/08/12 02:42:01;;;;;;;11.67;3.90;;;;;;;18.85;98.16;100955.44;6098026;28;20507;-66
2023/08/12 02:44:56;;;;;;;6.93;3.80;;;;;;;18.94;98.04;100973.91;6097054;28;20108;-65
2023/08/12 02:47:51;;;;;;;14.10;3.90;;;;;;;18.81;98.38;100954.97;6098017;28;20036;-65
2023/08/12 02:50:47;;;;;;;9.33;3.87;;;;;;;18.91;98.40;100955.50;6097769;28;20029;-65
2023/08/12 02:53:42;;;;;;;11.30;3.80;;;;;;;18.74;98.24;100927.25;6097974;28;20028;-65
2023/08/12 02:56:37;;;;;;;7.27;3.77;;;;;;;18.95;98.08;100940.63;6099855;28;20028;-65
2023/08/12 02:59:32;;;;;;;8.20;3.60;;;;;;;18.96;97.76;100947.69;6100013;28;20422;-65
2023/08/12 03:02:28;;;;;;;9.10;3.43;;;;;;;18.81;98.00;100925.41;6097605;28;20033;-66
2023/08/12 03:05:23;;;;;;;4.90;2.67;;;;;;;18.82;98.46;100940.53;6096929;28;20094;-65
2023/08/12 03:08:18;;;;;;;7.07;3.33;;;;;;;18.77;99.00;100934.91;6097225;28;20119;-65
2023/08/12 03:11:15;;;;;;;6.33;3.10;;;;;;;18.82;98.86;100951.28;6098595;28;20318;-66
2023/08/12 03:14:10;;;;;;;6.68;3.08;;;;;;;18.82;98.58;100932.47;6096609;28;20021;-66
2023/08/12 03:17:06;;;;;;;5.63;3.30;;;;;;;18.81;98.84;100928.13;6097429;28;20120;-66
2023/08/12 03:20:04;;;;;;;7.53;2.97;;;;;;;18.79;98.82;100927.47;6097660;28;20039;-65
2023/08/12 03:23:00;;;;;;;7.95;3.05;;;;;;;18.81;99.22;100928.13;6097106;28;20033;-65
2023/08/12 03:25:55;;;;;;;9.23;3.47;;;;;;;18.94;98.78;100948.91;6094870;28;20550;-66
2023/08/12 03:28:51;;;;;;;7.88;3.17;;;;;;;19.00;97.54;100932.81;6096110;28;20547;-66
2023/08/12 03:31:46;;;;;;;6.20;2.90;;;;;;;19.06;98.65;100963.47;6097284;28;20078;-66
2023/08/12 03:34:41;;;;;;;7.80;3.20;;;;;;;18.98;99.71;100991.31;6096374;28;20021;-66
2023/08/12 03:37:37;;;;;;;12.07;3.20;;;;;;;18.91;100.00;100987.75;6096892;28;20267;-66
2023/08/12 03:40:32;;;;;;;10.47;4.40;;;;;;;18.92;100.00;100993.94;6097216;28;20428;-66
2023/08/12 03:43:27;;;;;;;10.00;4.20;;;;;;;18.95;99.10;100978.28;6097280;28;20032;-66
2023/08/12 03:46:22;;;;;;;15.25;4.70;;;;;;;18.94;99.04;100962.34;6097180;28;20033;-66
2023/08/12 03:49:18;;;;;;;10.90;4.50;;;;;;;19.00;98.48;100970.44;6097018;28;20048;-66
2023/08/12 03:52:13;;;;;;;10.37;4.13;;;;;;;19.31;97.01;100972.75;6096945;28;20326;-66
2023/08/12 03:55:09;;;;;;;10.43;4.13;;;;;;;19.43;95.27;100975.78;6097569;28;20033;-66
2023/08/12 03:58:04;;;;;;;10.68;4.70;;;;;;;19.28;95.45;100966.94;6097157;28;20481;-66
2023/08/12 04:01:00;;;;;;;10.60;4.38;;;;;;;19.12;96.21;100956.47;6097007;28;20033;-66
2023/08/12 04:03:55;;;;;;;10.68;4.13;;;;;;;19.23;95.70;100966.69;6096339;28;20430;-66
2023/08/12 04:06:53;;;;;;;12.20;4.10;;;;;;;19.28;95.04;100961.56;6097687;28;20024;-66
2023/08/12 04:09:49;;;;;;;8.00;3.78;;;;;;;19.31;94.68;100962.00;6108120;28;20032;-66
2023/08/12 04:12:45;;;;;;;12.07;3.92;;;;;;;19.58;95.81;100990.78;6096601;28;20032;-66
2023/08/12 04:15:41;;;;;;;10.25;3.50;;;;;;;19.37;94.84;100973.84;6096073;28;20039;-66
2023/08/12 04:18:36;;;;;;;8.65;3.55;;;;;;;19.28;96.10;100973.16;6096482;28;20036;-66
2023/08/12 04:21:31;;;;;;;8.10;2.78;;;;;;;19.30;96.29;100976.47;6096969;28;20047;-65
2023/08/12 04:24:27;;;;;;;7.73;2.77;;;;;;;19.20;96.99;100969.78;6109126;28;20036;-66
2023/08/12 04:27:22;;;;;;;12.90;3.17;;;;;;;19.30;96.35;100967.56;6096566;28;20259;-66
2023/08/12 04:30:18;;;;;;;6.70;3.00;;;;;;;19.46;97.36;100986.94;6098365;28;20031;-66
2023/08/12 04:33:13;;;;;;;6.85;2.92;;;;;;;19.43;95.64;100991.91;6101246;28;20033;-66
2023/08/12 04:36:09;;;;;;;8.40;2.70;;;;;;;19.54;95.99;100981.41;6100543;28;20048;-66
2023/08/12 04:39:04;;;;;;;9.33;2.60;;;;;;;19.71;95.16;100983.78;6100978;28;20052;-66
2023/08/12 04:42:00;;;;;;;6.45;2.42;;;;;;;19.69;93.94;100983.16;6112790;28;20057;-66
2023/08/12 04:44:55;;;;;;;12.60;3.40;;;;;;;19.63;93.95;100983.94;6100331;28;20483;-66
2023/08/12 04:47:50;;;;;;;4.60;2.50;;;;;;;19.65;93.46;100990.78;6100589;28;20487;-65
2023/08/12 04:50:46;;;;;;;8.10;3.07;;;;;;;19.65;93.79;100985.41;6100790;28;20100;-66
2023/08/12 04:53:41;;;;;;;5.55;2.67;;;;;;;19.65;93.74;100996.16;6100198;28;20029;-66
2023/08/12 04:56:36;;;;;;;5.10;2.57;;;;;;;19.68;94.01;101001.16;6100790;28;20415;-65
2023/08/12 04:59:32;;;;;;;7.03;2.88;;;;;;;19.62;95.66;100987.69;6097498;28;20364;-65
2023/08/12 05:02:27;;;;;;;8.97;4.23;;;;;;;19.53;98.00;101000.47;6100331;28;20029;-65
2023/08/12 05:05:22;;;;;;;8.07;3.13;;;;;;;19.31;99.70;100982.69;6099982;28;20106;-65
2023/08/12 05:08:19;;;;;;;7.97;2.97;;;;;;;19.27;100.00;101000.25;6100525;28;20087;-65
2023/08/12 05:11:14;;;;;;;11.48;3.10;;;;;;;19.16;100.00;100990.03;6101400;28;20025;-65
2023/08/12 05:14:09;;;;;;;7.43;3.10;;;;;;;19.11;100.00;100987.06;6115995;28;20025;-65
2023/08/12 05:17:05;;;;;;;5.47;3.10;;;;;;;19.19;100.00;100993.13;6103165;28;20037;-65
2023/08/12 05:20:00;;;;;;;10.68;3.40;;;;;;;19.10;100.00;100993.50;6100306;28;20049;-65
2023/08/12 05:22:56;;;;;;;4.53;2.90;;;;;;;18.96;100.00;100989.84;6100153;28;20491;-65
2023/08/12 05:25:52;;;;;;;8.23;3.50;;;;;;;18.89;100.00;100992.47;6099217;28;20070;-64
2023/08/12 05:28:47;;;;;;;5.83;3.43;;;;;;;18.85;100.00;100991.22;6099925;28;20017;-64
2023/08/12 05:31:42;;;;;;;7.23;3.50;;;;;;;18.82;100.00;101009.56;6099878;28;20763;-64
2023/08/12 05:34:38;;;;;;;7.33;3.73;;;;;;;18.67;100.00;101001.56;6100768;28;20025;-64
2023/08/12 05:37:33;;;;;;;12.97;4.10;;;;;;;18.78;100.00;101025.22;6102748;28;20036;-64
2023/08/12 05:40:28;;;;;;;6.60;3.70;;;;;;;18.80;100.00;101007.09;6099446;28;20044;-64
2023/08/12 05:43:24;;;;;;;7.07;4.03;;;;;;;18.80;100.00;101020.53;6099149;28;20375;-64
2023/08/12 05:46:19;;;;;;;7.80;4.07;;;;;;;18.85;100.00;101001.97;6100930;28;20039;-64
2023/08/12 05:49:14;;;;;;;6.47;4.03;;;;;;;18.93;100.00;101007.22;6099585;28;20025;-64
2023/08/12 05:52:09;;;;;;;10.20;4.27;;;;;;;18.94;100.00;100999.97;6099275;28;20029;-64
2023/08/12 05:55:05;;;;;;;6.10;3.77;;;;;;;19.08;100.00;101011.69;6098255;28;20471;-64
2023/08/12 05:58:01;;;;;;;7.95;4.38;;;;;;;19.18;100.00;101010.31;6098890;28;20082;-64
2023/08/12 06:00:56;;;;;;;10.80;4.55;;;;;;;19.24;100.00;100990.69;6098817;28;20055;-64
2023/08/12 06:03:51;;;;;;;8.55;4.50;;;;;;;19.43;100.00;100981.16;6099346;28;20108;-64
2023/08/12 06:06:47;;;;;;;8.20;4.10;;;;;;;19.62;100.00;100983.13;6098901;28;20435;-64
2023/08/12 06:09:42;;;;;;;9.00;4.10;;;;;;;19.77;100.00;100983.00;6098660;28;20104;-65
2023/08/12 06:12:37;;;;;;;7.07;3.73;;;;;;;19.90;100.00;100981.19;6098808;28;20294;-64
2023/08/12 06:15:33;;;;;;;7.00;4.07;;;;;;;19.94;100.00;100979.78;6098015;28;20033;-65
2023/08/12 06:18:28;;;;;;;8.18;4.43;;;;;;;20.10;100.00;100979.44;6098714;28;20024;-65
2023/08/12 06:21:23;;;;;;;8.95;4.20;;;;;;;20.16;100.00;100967.84;6098576;28;20025;-65
2023/08/12 06:24:19;;;;;;;11.13;5.73;;;;;;;20.17;100.00;100947.97;6097952;28;20025;-65
2023/08/12 06:27:14;;;;;;;10.40;4.67;;;;;;;20.23;100.00;100948.19;6098544;28;20021;-65
2023/08/12 06:30:10;;;;;;;7.43;4.10;;;;;;;20.35;100.00;100943.91;6098154;28;20086;-65
2023/08/12 06:33:05;;;;;;;7.35;3.90;;;;;;;20.54;100.00;100953.88;6098297;28;20024;-65
2023/08/12 06:36:01;;;;;;;7.17;4.67;;;;;;;20.42;100.00;100945.56;6095586;28;20025;-65
2023/08/12 06:38:56;;;;;;;7.60;4.20;;;;;;;20.42;100.00;100942.03;6098275;28;20021;-65
2023/08/12 06:41:52;;;;;;;7.23;4.00;;;;;;;20.57;100.00;100948.09;6098159;28;20025;-65
2023/08/12 06:44:54;;;;;;;6.93;4.15;;;;;;;20.64;100.00;100938.97;6097263;28;20079;-65
2023/08/12 06:47:49;;;;;;;9.13;4.70;;;;;;;20.83;100.00;100953.50;6098123;28;20025;-65
2023/08/12 06:50:45;;;;;;;7.33;4.57;;;;;;;20.74;100.00;100952.03;6097871;28;20020;-65
2023/08/12 06:53:40;;;;;;;8.43;4.45;;;;;;;20.78;100.00;100950.59;6096906;28;20024;-64
2023/08/12 06:56:35;;;;;;;8.37;4.63;;;;;;;20.87;100.00;100951.22;6097688;28;20082;-65
2023/08/12 06:59:31;;;;;;;10.57;4.63;;;;;;;20.87;100.00;100951.22;6088030;28;20255;-65
2023/08/12 07:02:26;;;;;;;7.37;4.60;;;;;;;20.79;100.00;100941.44;6097552;28;20036;-65
2023/08/12 07:05:21;;;;;;;8.83;4.57;;;;;;;20.72;100.00;100929.84;6096912;28;20531;-65
2023/08/12 07:08:17;;;;;;;9.30;4.70;;;;;;;20.70;100.00;100929.25;6097885;28;20476;-65
2023/08/12 07:11:12;;;;;;;9.07;4.90;;;;;;;20.88;100.00;100940.22;6097357;28;20029;-65
2023/08/12 07:14:07;;;;;;;9.90;4.40;;;;;;;21.02;100.00;100947.28;6096546;28;20029;-65
2023/08/12 07:17:03;;;;;;;10.43;4.67;;;;;;;21.06;100.00;100932.31;6097409;28;20043;-65
2023/08/12 07:19:58;;;;;;;10.50;4.17;;;;;;;21.22;100.00;100942.75;6097579;28;20055;-65
2023/08/12 07:22:53;;;;;;;9.07;4.93;;;;;;;21.06;100.00;100948.50;6097552;28;20036;-65
2023/08/12 07:25:48;;;;;;;9.50;4.00;;;;;;;21.12;100.00;100945.00;6096583;28;20380;-65
2023/08/12 07:28:44;;;;;;;7.20;4.13;;;;;;;20.99;100.00;100942.28;6096896;28;20329;-65
2023/08/12 07:31:39;;;;;;;6.90;3.75;;;;;;;21.09;100.00;100948.13;6097016;28;20031;-65
2023/08/12 07:34:34;;;;;;;12.23;4.37;;;;;;;21.30;100.00;100950.63;6096377;28;20028;-65
2023/08/12 07:37:30;;;;;;;9.57;4.20;;;;;;;21.29;100.00;100940.00;6101060;28;20028;-65
2023/08/12 07:40:26;;;;;;;8.10;3.97;;;;;;;21.24;100.00;100954.16;6097110;28;20590;-65
2023/08/12 07:43:21;;;;;;;10.48;4.10;;;;;;;21.40;100.00;100943.94;6096327;28;20537;-65
2023/08/12 07:46:16;;;;;;;7.43;3.50;;;;;;;21.58;99.15;100963.00;6097260;28;20480;-65
2023/08/12 07:49:12;;;;;;;6.90;3.90;;;;;;;21.81;97.78;100956.06;6096846;28;20275;-65
2023/08/12 07:52:07;;;;;;;7.60;3.97;;;;;;;21.85;95.71;100954.59;6097058;28;20423;-65
2023/08/12 07:55:02;;;;;;;7.37;3.57;;;;;;;21.21;98.12;100945.63;6096349;28;20461;-65
2023/08/12 07:57:58;;;;;;;10.02;4.00;;;;;;;21.27;96.49;100912.41;6092818;28;20036;-65
2023/08/12 08:00:53;;;;;;;9.23;4.37;;;;;;;21.43;96.89;100944.34;6092360;28;20036;-65
2023/08/12 08:03:49;;;;;;;6.53;3.80;;;;;;;21.46;98.08;100938.53;6096081;28;20419;-65
2023/08/12 08:06:44;;;;;;;7.67;3.07;;;;;;;21.66;97.31;100938.47;6101218;28;20029;-66
2023/08/12 08:09:39;;;;;;;7.60;3.90;;;;;;;21.80;94.92;100945.47;6103473;28;20025;-66
2023/08/12 08:12:35;;;;;;;8.10;3.90;;;;;;;21.23;96.31;100936.28;6104045;28;20294;-65
2023/08/12 08:15:30;;;;;;;8.43;3.50;;;;;;;21.35;97.48;100948.09;6103130;28;20067;-66
2023/08/12 08:18:25;;;;;;;6.77;3.30;;;;;;;21.60;95.56;100936.63;6101076;28;20085;-65
2023/08/12 08:21:21;;;;;;;4.30;3.00;;;;;;;21.52;95.40;100931.47;6101520;28;20343;-65
2023/08/12 08:24:16;;;;;;;7.60;3.13;;;;;;;21.48;95.35;100943.72;6100434;28;20024;-65
2023/08/12 08:27:13;;;;;;;8.70;3.03;;;;;;;21.58;95.13;100919.81;6102129;28;20029;-65
2023/08/12 08:30:09;;;;;;;4.85;3.47;;;;;;;21.25;95.70;100926.09;6101312;28;20361;-66
2023/08/12 08:33:04;;;;;;;4.80;2.92;;;;;;;21.43;96.20;100928.16;6101123;28;20033;-65
2023/08/12 08:36:00;;;;;;;6.07;3.63;;;;;;;21.26;95.88;100916.97;6100679;28;20430;-66
2023/08/12 08:38:55;;;;;;;6.77;3.47;;;;;;;21.32;96.61;100931.50;6101159;28;20056;-66
2023/08/12 08:41:53;;;;;;;5.47;3.47;;;;;;;21.50;94.49;100917.34;6101969;28;20373;-65
2023/08/12 08:44:52;;;;;;;4.57;3.05;;;;;;;21.47;95.04;100928.56;6100397;28;20357;-65
2023/08/12 08:47:48;;;;;;;6.38;3.22;;;;;;;21.55;95.05;100928.34;6100702;28;20440;-65
2023/08/12 08:50:45;;;;;;;6.60;3.53;;;;;;;21.09;99.08;100931.94;6100762;28;20027;-65
2023/08/12 08:53:41;;;;;;;6.53;3.35;;;;;;;20.94;100.00;100931.31;6098764;28;20376;-65
2023/08/12 08:56:37;;;;;;;5.65;3.65;;;;;;;20.84;100.00;100941.69;6104370;28;20036;-65
2023/08/12 08:59:32;;;;;;;6.63;3.88;;;;;;;20.86;100.00;100931.53;6094470;28;20556;-65
2023/08/12 09:02:27;;;;;;;8.50;3.17;;;;;;;21.08;99.36;100930.31;6100428;28;20079;-65
2023/08/12 09:05:23;;;;;;;6.90;3.38;;;;;;;21.19;99.70;100936.94;6098751;28;20040;-65
2023/08/12 09:08:19;;;;;;;9.68;3.72;;;;;;;21.26;96.09;100900.78;6100324;28;20032;-65
2023/08/12 09:11:15;;;;;;;7.60;3.40;;;;;;;21.27;96.98;100912.41;6099317;28;20028;-65
2023/08/12 09:14:11;;;;;;;6.75;3.50;;;;;;;21.38;97.17;100910.94;6107921;28;20082;-65
2023/08/12 09:17:06;;;;;;;5.82;3.60;;;;;;;21.50;95.23;100914.66;6099677;28;20021;-65
2023/08/12 09:20:03;;;;;;;6.22;3.55;;;;;;;21.46;97.00;100932.31;6100052;28;20033;-65
2023/08/12 09:22:58;;;;;;;7.68;3.92;;;;;;;21.62;96.26;100919.19;6100008;28;20492;-65
2023/08/12 09:25:54;;;;;;;10.38;4.50;;;;;;;21.54;95.41;100892.41;6099666;28;20110;-65
2023/08/12 09:28:49;;;;;;;7.50;4.17;;;;;;;21.41;96.22;100921.31;6105928;28;20044;-67
2023/08/12 09:31:44;;;;;;;6.93;3.70;;;;;;;21.32;94.85;100905.34;6104020;28;20376;-66
2023/08/12 09:34:54;;;;;;;6.87;4.23;;;;;;;21.22;94.89;100904.97;6095018;28;20268;-67
2023/08/12 09:37:49;;;;;;;6.20;4.30;;;;;;;21.13;96.17;100900.00;6099518;28;20037;-67
2023/08/12 09:40:46;;;;;;;11.37;4.53;;;;;;;21.15;96.28;100898.75;6099735;28;20108;-67
2023/08/12 09:43:42;;;;;;;8.68;4.07;;;;;;;21.41;94.73;100892.47;6098936;28;20259;-64
2023/08/12 09:46:38;;;;;;;6.95;3.88;;;;;;;21.47;95.12;100901.59;6086519;28;20416;-67
2023/08/12 09:49:35;;;;;;;5.80;3.72;;;;;;;21.47;94.86;100878.09;6099511;28;20021;-66
2023/08/12 09:52:30;;;;;;;8.13;3.70;;;;;;;21.76;92.79;100895.66;6099136;28;20094;-66
2023/08/12 09:55:25;;;;;;;10.27;4.30;;;;;;;21.90;89.88;100881.88;6098869;28;20028;-66
2023/08/12 09:58:24;;;;;;;8.33;3.90;;;;;;;22.48;86.94;100870.91;6099114;28;20268;-67
2023/08/12 10:01:23;;;;;;;6.28;3.30;;;;;;;22.72;85.02;100872.03;6107580;28;20263;-67
2023/08/12 10:04:21;;;;;;;9.30;4.07;;;;;;;23.39;82.35;100855.75;6101677;28;20053;-66
2023/08/12 10:07:17;;;;;;;7.18;4.45;;;;;;;24.25;78.46;100861.69;6099225;28;20025;-67
2023/08/12 10:10:12;;;;;;;7.28;3.92;;;;;;;24.32;76.08;100858.88;6098843;28;20032;-64
2023/08/12 10:13:09;;;;;;;6.28;3.80;;;;;;;24.64;74.30;100838.53;6097605;28;20110;-65
2023/08/12 10:16:05;;;;;;;8.35;4.10;;;;;;;25.27;71.66;100840.53;6097270;28;20115;-65
2023/08/12 10:19:02;;;;;;;8.43;3.50;;;;;;;25.51;70.84;100841.31;6099973;28;20036;-65
2023/08/12 10:21:58;;;;;;;6.28;3.72;;;;;;;25.42;72.51;100843.53;6099017;28;20116;-65
2023/08/12 10:24:54;;;;;;;8.40;3.53;;;;;;;25.01;72.29;100838.31;6098036;28;20419;-65
2023/08/12 10:27:49;;;;;;;5.47;3.30;;;;;;;25.36;71.37;100826.31;6097791;28;20028;-65
2023/08/12 10:30:45;;;;;;;9.18;3.22;;;;;;;25.86;67.86;100845.56;6098614;28;20021;-64
2023/08/12 10:33:41;;;;;;;8.70;4.22;;;;;;;24.69;71.41;100835.94;6098638;28;20036;-65
2023/08/12 10:36:41;;;;;;;9.05;4.30;;;;;;;24.03;77.62;100862.41;6098540;28;20036;-65
2023/08/12 10:39:36;;;;;;;6.68;3.72;;;;;;;24.51;76.16;100856.91;6098329;28;20098;-65
2023/08/12 10:42:44;;;;;;;4.70;3.30;;;;;;;24.13;78.46;100849.16;6096857;28;20017;-65
2023/08/12 10:45:54;;;;;;;7.20;3.67;;;;;;;24.40;79.64;100868.56;6098108;28;20025;-65
2023/08/12 10:48:57;;;;;;;6.38;3.28;;;;;;;24.40;80.15;100853.13;6103026;28;20176;-65
2023/08/12 10:51:53;;;;;;;4.85;3.10;;;;;;;24.12;81.61;100850.22;6110427;28;20038;-65
2023/08/12 10:54:49;;;;;;;10.45;4.00;;;;;;;23.90;85.30;100857.16;6099141;28;20418;-65
2023/08/12 10:57:45;;;;;;;7.17;3.40;;;;;;;23.82;89.15;100855.59;6097879;28;20064;-64
2023/08/12 11:00:41;;;;;;;6.93;3.55;;;;;;;24.00;91.05;100854.72;6093146;28;20353;-64
2023/08/12 11:03:36;;;;;;;8.65;3.72;;;;;;;23.59;95.68;100861.72;6097569;28;20052;-64
2023/08/12 11:06:43;;;;;;;6.53;4.27;;;;;;;23.39;95.68;100866.56;6098886;28;20116;-67
2023/08/12 11:09:38;;;;;;;8.48;4.18;;;;;;;23.17;95.02;100862.63;6097665;28;20372;-67
2023/08/12 11:12:34;;;;;;;7.13;3.67;;;;;;;23.41;91.56;100850.94;6097807;28;20032;-66
2023/08/12 11:15:37;;;;;;;8.38;3.17;;;;;;;24.36;86.51;100840.25;6096972;28;20036;-67
2023/08/12 11:18:32;;;;;;;5.13;3.17;;;;;;;24.57;83.43;100821.53;6097661;28;20029;-67
2023/08/12 11:21:28;;;;;;;8.15;3.50;;;;;;;25.24;79.47;100817.41;6098720;28;20032;-66
2023/08/12 11:24:24;;;;;;;6.75;3.22;;;;;;;24.92;79.40;100788.19;6097032;28;20494;-67
2023/08/12 11:27:19;;;;;;;7.35;3.13;;;;;;;25.28;79.13;100785.13;6096312;28;20060;-67
2023/08/12 11:30:20;;;;;;;5.10;3.27;;;;;;;26.08;72.84;100790.50;6097369;28;20028;-64
2023/08/12 11:33:18;;;;;;;7.20;3.47;;;;;;;26.57;72.39;100795.97;6097163;28;20263;-67
2023/08/12 11:36:13;;;;;;;4.65;3.10;;;;;;;26.77;66.59;100789.97;6097075;28;20075;-64
2023/08/12 11:39:09;;;;;;;5.80;3.55;;;;;;;26.43;70.38;100769.34;6100282;28;20024;-67
2023/08/12 11:42:04;;;;;;;5.43;3.20;;;;;;;26.60;69.44;100776.44;6101191;28;20028;-64
2023/08/12 11:45:00;;;;;;;5.43;3.15;;;;;;;26.42;69.40;100764.97;6101448;28;20024;-65
2023/08/12 11:47:55;;;;;;;7.30;3.17;;;;;;;26.69;69.48;100779.53;6102235;28;20021;-64
2023/08/12 11:50:50;;;;;;;6.35;3.15;;;;;;;27.18;67.49;100780.50;6101955;28;20460;-64
2023/08/12 11:53:46;;;;;;;5.78;3.30;;;;;;;27.96;62.36;100769.13;6102880;28;20029;-65
2023/08/12 11:56:41;;;;;;;6.00;3.70;;;;;;;28.05;62.43;100764.84;6102106;28;20037;-65
2023/08/12 11:59:37;;;;;;;5.75;3.15;;;;;;;27.40;62.47;100750.50;6100608;28;20278;-65
2023/08/12 12:02:36;;;;;;;5.63;3.05;;;;;;;27.09;64.56;100777.41;6101958;28;20021;-65
2023/08/12 12:05:33;;;;;;;8.02;3.65;;;;;;;26.92;65.54;100768.47;6101094;28;20025;-65
2023/08/12 12:08:31;;;;;;;6.50;3.00;;;;;;;27.09;66.88;100771.97;6113441;28;20039;-66
2023/08/12 12:11:26;;;;;;;5.18;2.90;;;;;;;27.23;66.28;100768.84;6101621;28;20112;-66
2023/08/12 12:14:21;;;;;;;6.20;3.43;;;;;;;27.25;65.90;100780.31;6101215;28;20533;-66
2023/08/12 12:17:17;;;;;;;5.10;3.13;;;;;;;27.13;65.37;100783.97;6101735;28;20100;-67
2023/08/12 12:20:14;;;;;;;7.23;2.83;;;;;;;26.91;66.14;100785.88;6101647;28;20035;-66
2023/08/12 12:23:09;;;;;;;5.20;3.13;;;;;;;26.75;66.93;100762.19;6101770;28;20036;-66
2023/08/12 12:26:04;;;;;;;6.63;2.90;;;;;;;26.50;68.12;100772.69;6110636;28;20021;-66
2023/08/12 12:29:00;;;;;;;6.22;2.97;;;;;;;26.32;69.81;100764.81;6100395;28;20032;-66
2023/08/12 12:31:55;;;;;;;5.40;3.30;;;;;;;26.11;70.29;100781.84;6100193;28;20418;-67
2023/08/12 12:34:52;;;;;;;6.10;3.03;;;;;;;26.56;71.79;100753.50;6099968;28;20260;-66
2023/08/12 12:37:47;;;;;;;5.43;3.13;;;;;;;26.76;68.40;100739.34;6095644;28;20388;-66
2023/08/12 12:40:42;;;;;;;5.40;2.87;;;;;;;27.16;68.09;100739.91;6111308;28;20043;-66
2023/08/12 12:43:38;;;;;;;5.90;3.13;;;;;;;28.09;63.70;100716.91;6100388;28;20028;-66
2023/08/12 12:46:33;;;;;;;3.60;2.30;;;;;;;28.51;60.84;100713.38;6101102;28;20043;-66
2023/08/12 12:49:28;;;;;;;5.35;2.50;;;;;;;28.54;60.28;100729.19;6100826;28;20411;-66
2023/08/12 12:52:24;;;;;;;3.53;2.57;;;;;;;27.89;61.92;100719.41;6099994;28;20029;-66
2023/08/12 12:55:20;;;;;;;5.60;2.23;;;;;;;27.50;64.47;100729.69;6100161;28;20063;-66
2023/08/12 12:58:16;;;;;;;2.80;1.80;;;;;;;27.14;66.01;100712.09;6087188;28;20399;-66
2023/08/12 13:01:11;;;;;;;2.97;2.00;;;;;;;26.91;65.83;100711.53;6098814;28;20479;-66
2023/08/12 13:04:08;;;;;;;4.67;2.00;;;;;;;26.72;66.56;100694.66;6099811;28;20032;-66
2023/08/12 13:07:03;;;;;;;3.92;2.60;;;;;;;26.59;67.12;100692.31;6100623;28;20057;-66
2023/08/12 13:09:58;;;;;;;3.90;2.20;;;;;;;26.82;67.85;100689.41;6100194;28;20051;-66
2023/08/12 13:12:54;;;;;;;3.40;1.83;;;;;;;27.27;66.39;100705.44;6101633;28;20515;-66
2023/08/12 13:15:49;;;;;;;2.97;2.00;;;;;;;27.45;65.19;100696.13;6099761;28;20180;-66
2023/08/12 13:18:44;;;;;;;3.97;1.83;;;;;;;27.27;66.12;100712.78;6099955;28;20025;-66
2023/08/12 13:21:40;;;;;;;3.95;2.03;;;;;;;26.96;67.43;100704.25;6101858;28;20131;-65
2023/08/12 13:24:36;;;;;;;3.47;2.07;;;;;;;27.00;67.74;100712.75;6104754;28;20385;-66
2023/08/12 13:27:31;;;;;;;4.07;2.22;;;;;;;26.63;67.74;100707.06;6100075;28;20039;-66
2023/08/12 13:30:27;;;;;;;4.70;2.33;;;;;;;26.26;70.15;100705.97;6108629;28;20376;-66
2023/08/12 13:33:22;;;;;;;3.50;2.20;;;;;;;26.34;72.86;100721.88;6099064;28;20090;-67
2023/08/12 13:36:17;;;;;;;5.77;2.57;;;;;;;26.05;73.45;100721.13;6100008;28;20602;-66